createdAt,value
2023-03-27T00:02:03.937Z,97704.81
2023-03-27T00:04:30.423Z,97704.75
2023-03-27T00:06:57.249Z,97707.72
2023-03-27T00:09:23.719Z,97720.00
2023-03-27T00:11:50.222Z,97726.84
2023-03-27T00:14:16.824Z,97726.84
2023-03-27T00:16:43.272Z,97738.47
2023-03-27T00:19:09.861Z,97738.47
2023-03-27T00:21:36.411Z,97744.53
2023-03-27T00:24:02.900Z,97747.03
2023-03-27T00:26:30.596Z,97754.34
2023-03-27T00:28:57.314Z,97758.97
2023-03-27T00:31:23.892Z,97756.97
2023-03-27T00:33:50.531Z,97766.44
2023-03-27T00:36:17.218Z,97767.44
2023-03-27T00:38:45.188Z,97777.28
2023-03-27T00:41:12.547Z,97785.63
2023-03-27T00:43:43.805Z,97790.06
2023-03-27T00:46:43.803Z,97795.81
2023-03-27T00:49:13.412Z,97796.00
2023-03-27T00:51:42.933Z,97807.09
2023-03-27T00:54:12.579Z,97798.78
2023-03-27T00:56:39.233Z,97807.63
2023-03-27T00:59:12.487Z,97824.94
2023-03-27T01:01:40.162Z,97823.50
2023-03-27T01:04:08.881Z,97822.97
2023-03-27T01:06:36.803Z,97828.41
2023-03-27T01:09:04.599Z,97833.97
2023-03-27T01:11:56.095Z,97845.81
2023-03-27T01:14:22.646Z,97840.75
2023-03-27T01:17:16.071Z,97855.81
2023-03-27T01:19:57.431Z,97860.38
2023-03-27T01:22:56.823Z,97864.34
2023-03-27T01:25:50.636Z,97866.50
2023-03-27T01:28:42.465Z,97874.16
2023-03-27T01:31:24.182Z,97869.97
2023-03-27T01:34:15.710Z,97879.78
2023-03-27T01:37:21.815Z,97894.50
2023-03-27T01:40:27.881Z,97901.91
2023-03-27T01:43:04.783Z,97910.38
2023-03-27T01:45:42.526Z,97916.13
2023-03-27T01:48:15.888Z,97913.38
2023-03-27T01:50:48.442Z,97921.88
2023-03-27T01:53:22.824Z,97928.28
2023-03-27T01:56:26.315Z,97935.13
2023-03-27T01:59:11.143Z,97947.09
2023-03-27T02:01:42.282Z,97957.56
2023-03-27T02:04:16.461Z,97958.06
2023-03-27T02:06:54.142Z,97964.75
2023-03-27T02:09:36.584Z,97978.16
2023-03-27T02:12:15.314Z,97981.75
2023-03-27T02:14:54.941Z,97996.94
2023-03-27T02:17:26.284Z,97987.78
2023-03-27T02:20:00.397Z,97995.75
2023-03-27T02:22:38.249Z,98005.72
2023-03-27T02:25:23.293Z,98010.94
2023-03-27T02:27:57.204Z,98003.47
2023-03-27T02:30:36.224Z,98016.84
2023-03-27T02:33:29.692Z,98024.66
2023-03-27T02:36:00.436Z,98021.22
2023-03-27T02:38:41.156Z,98030.75
2023-03-27T02:41:32.515Z,98036.69
2023-03-27T02:44:46.454Z,98065.81
2023-03-27T02:47:28.493Z,98074.06
2023-03-27T02:49:59.968Z,98087.03
2023-03-27T02:52:45.452Z,98087.63
2023-03-27T02:55:17.291Z,98101.69
2023-03-27T02:57:52.675Z,98109.03
2023-03-27T03:00:26.186Z,98125.69
2023-03-27T03:03:10.967Z,98130.56
2023-03-27T03:05:38.035Z,98137.84
2023-03-27T03:08:05.769Z,98133.22
2023-03-27T03:10:33.337Z,98134.41
2023-03-27T03:12:59.852Z,98140.44
2023-03-27T03:15:27.098Z,98152.53
2023-03-27T03:17:53.942Z,98155.38
2023-03-27T03:20:21.508Z,98166.69
2023-03-27T03:22:49.285Z,98173.97
2023-03-27T03:25:17.828Z,98176.19
2023-03-27T03:27:44.653Z,98176.47
2023-03-27T03:30:17.365Z,98188.69
2023-03-27T03:32:58.208Z,98193.63
2023-03-27T03:35:25.149Z,98202.78
2023-03-27T03:37:57.642Z,98199.94
2023-03-27T03:40:24.314Z,98209.25
2023-03-27T03:42:55.365Z,98217.66
2023-03-27T03:45:25.735Z,98209.31
2023-03-27T03:47:52.358Z,98221.66
2023-03-27T03:50:18.933Z,98229.44
2023-03-27T03:52:45.969Z,98237.66
2023-03-27T03:55:12.718Z,98251.34
2023-03-27T03:57:39.253Z,98248.59
2023-03-27T04:00:14.038Z,98254.78
2023-03-27T04:02:53.690Z,98260.63
2023-03-27T04:05:21.995Z,98261.66
2023-03-27T04:07:52.274Z,98270.38
2023-03-27T04:10:39.477Z,98277.88
2023-03-27T04:13:14.906Z,98291.72
2023-03-27T04:15:53.007Z,98294.06
2023-03-27T04:18:33.013Z,98299.28
2023-03-27T04:21:03.017Z,98310.22
2023-03-27T04:23:33.202Z,98325.72
2023-03-27T04:26:02.964Z,98325.28
2023-03-27T04:28:51.705Z,98329.09
2023-03-27T04:31:46.515Z,98338.84
2023-03-27T04:34:33.143Z,98338.94
2023-03-27T04:37:06.466Z,98352.97
2023-03-27T04:39:39.706Z,98348.69
2023-03-27T04:42:06.531Z,98357.75
2023-03-27T04:44:34.878Z,98364.19
2023-03-27T04:47:02.306Z,98361.72
2023-03-27T04:49:29.599Z,98364.56
2023-03-27T04:52:02.899Z,98371.72
2023-03-27T04:54:31.847Z,98369.41
2023-03-27T04:57:01.902Z,98384.19
2023-03-27T04:59:31.837Z,98382.81
2023-03-27T05:02:31.227Z,98392.25
2023-03-27T05:05:03.056Z,98398.25
2023-03-27T05:07:32.765Z,98401.16
2023-03-27T05:10:02.037Z,98394.59
2023-03-27T05:12:29.200Z,98401.28
2023-03-27T05:15:00.524Z,98399.50
2023-03-27T05:17:40.782Z,98408.53
2023-03-27T05:20:19.212Z,98412.91
2023-03-27T05:22:46.582Z,98417.16
2023-03-27T05:25:22.436Z,98427.13
2023-03-27T05:27:50.766Z,98432.22
2023-03-27T05:30:20.951Z,98442.22
2023-03-27T05:32:52.573Z,98452.03
2023-03-27T05:35:30.908Z,98456.31
2023-03-27T05:37:58.882Z,98465.88
2023-03-27T05:40:39.639Z,98470.41
2023-03-27T05:43:08.313Z,98471.47
2023-03-27T05:45:36.245Z,98481.97
2023-03-27T05:48:03.867Z,98481.13
2023-03-27T05:50:35.411Z,98482.53
2023-03-27T05:53:09.810Z,98492.34
2023-03-27T05:55:40.048Z,98502.59
2023-03-27T05:58:09.565Z,98502.50
2023-03-27T06:00:36.602Z,98504.56
2023-03-27T06:03:04.284Z,98504.41
2023-03-27T06:06:00.176Z,98521.69
2023-03-27T06:08:30.539Z,98521.50
2023-03-27T06:10:58.605Z,98525.84
2023-03-27T06:13:32.605Z,98528.88
2023-03-27T06:16:07.651Z,98541.94
2023-03-27T06:18:53.162Z,98547.22
2023-03-27T06:21:20.954Z,98553.19
2023-03-27T06:23:49.086Z,98557.56
2023-03-27T06:26:16.948Z,98555.38
2023-03-27T06:28:43.552Z,98557.28
2023-03-27T06:31:14.818Z,98558.47
2023-03-27T06:33:55.064Z,98559.19
2023-03-27T06:36:34.738Z,98575.31
2023-03-27T06:39:06.280Z,98578.56
2023-03-27T06:41:33.944Z,98583.81
2023-03-27T06:44:00.504Z,98590.50
2023-03-27T06:46:52.776Z,98587.25
2023-03-27T06:49:26.192Z,98588.31
2023-03-27T06:51:53.226Z,98594.28
2023-03-27T06:54:21.266Z,98586.50
2023-03-27T06:56:51.662Z,98598.03
2023-03-27T06:59:20.910Z,98598.66
2023-03-27T07:01:52.394Z,98603.00
2023-03-27T07:04:30.225Z,98606.22
2023-03-27T07:07:12.297Z,98620.97
2023-03-27T07:09:42.048Z,98627.34
2023-03-27T07:12:11.043Z,98626.13
2023-03-27T07:14:40.479Z,98641.16
2023-03-27T07:17:09.229Z,98634.63
2023-03-27T07:19:50.453Z,98644.69
2023-03-27T07:22:19.084Z,98654.94
2023-03-27T07:24:45.545Z,98645.06
2023-03-27T07:27:11.996Z,98655.13
2023-03-27T07:29:39.715Z,98651.84
2023-03-27T07:32:09.200Z,98665.53
2023-03-27T07:34:42.696Z,98666.22
2023-03-27T07:37:38.103Z,98667.03
2023-03-27T07:40:37.017Z,98666.97
2023-03-27T07:43:24.649Z,98664.19
2023-03-27T07:45:51.399Z,98673.97
2023-03-27T07:48:18.758Z,98674.13
2023-03-27T07:50:46.245Z,98678.03
2023-03-27T07:53:34.473Z,98683.66
2023-03-27T07:56:14.288Z,98694.38
2023-03-27T07:58:43.103Z,98696.28
2023-03-27T08:01:11.572Z,98703.69
2023-03-27T08:03:39.446Z,98702.81
2023-03-27T08:06:07.502Z,98698.06
2023-03-27T08:08:34.313Z,98704.03
2023-03-27T08:11:03.830Z,98713.25
2023-03-27T08:13:35.450Z,98716.59
2023-03-27T08:16:03.397Z,98715.22
2023-03-27T08:18:30.160Z,98709.47
2023-03-27T08:20:57.358Z,98706.63
2023-03-27T08:23:27.281Z,98719.59
2023-03-27T08:26:14.524Z,98725.84
2023-03-27T08:28:53.953Z,98718.53
2023-03-27T08:31:22.848Z,98724.50
2023-03-27T08:33:49.613Z,98716.03
2023-03-27T08:36:23.034Z,98714.16
2023-03-27T08:38:51.457Z,98719.47
2023-03-27T08:41:38.574Z,98728.69
2023-03-27T08:44:31.035Z,98737.75
2023-03-27T08:47:16.898Z,98746.53
2023-03-27T08:49:58.225Z,98740.63
2023-03-27T08:52:34.124Z,98741.63
2023-03-27T08:55:15.258Z,98750.50
2023-03-27T08:57:51.097Z,98743.13
2023-03-27T09:00:27.755Z,98737.44
2023-03-27T09:03:15.588Z,98747.16
2023-03-27T09:05:53.737Z,98747.22
2023-03-27T09:08:27.762Z,98755.06
2023-03-27T09:11:08.211Z,98745.06
2023-03-27T09:13:49.452Z,98743.47
2023-03-27T09:16:26.269Z,98744.38
2023-03-27T09:19:10.445Z,98748.09
2023-03-27T09:21:44.617Z,98748.28
2023-03-27T09:24:32.932Z,98746.81
2023-03-27T09:27:28.691Z,98753.41
2023-03-27T09:30:22.254Z,98760.03
2023-03-27T09:33:03.708Z,98751.63
2023-03-27T09:35:30.488Z,98741.53
2023-03-27T09:38:03.973Z,98745.44
2023-03-27T09:40:44.926Z,98756.09
2023-03-27T09:43:18.808Z,98759.34
2023-03-27T09:45:47.773Z,98750.34
2023-03-27T09:48:40.175Z,98761.91
2023-03-27T09:51:37.192Z,98763.72
2023-03-27T09:54:06.406Z,98757.22
2023-03-27T09:56:51.935Z,98756.56
2023-03-27T09:59:33.037Z,98760.91
2023-03-27T10:02:20.360Z,98754.03
2023-03-27T10:05:12.158Z,98752.00
2023-03-27T10:07:40.753Z,98751.03
2023-03-27T10:10:22.000Z,98750.44
2023-03-27T10:13:04.310Z,98759.31
2023-03-27T10:15:38.868Z,98755.78
2023-03-27T10:18:22.505Z,98756.22
2023-03-27T10:20:52.701Z,98757.47
2023-03-27T10:23:39.464Z,98751.22
2023-03-27T10:26:08.392Z,98747.44
2023-03-27T10:28:53.013Z,98756.66
2023-03-27T10:31:30.897Z,98748.19
2023-03-27T10:34:26.189Z,98752.19
2023-03-27T10:37:32.364Z,98758.75
2023-03-27T10:40:19.623Z,98761.28
2023-03-27T10:42:50.048Z,98769.78
2023-03-27T10:45:22.049Z,98781.13
2023-03-27T10:47:59.093Z,98780.44
2023-03-27T10:50:35.647Z,98799.41
2023-03-27T10:53:37.854Z,98818.28
2023-03-27T10:56:26.269Z,98828.97
2023-03-27T10:59:12.242Z,98837.06
2023-03-27T11:01:45.209Z,98850.16
2023-03-27T11:04:17.761Z,98861.88
2023-03-27T11:06:52.554Z,98854.66
2023-03-27T11:09:26.859Z,98861.94
2023-03-27T11:12:10.239Z,98868.03
2023-03-27T11:14:53.822Z,98862.69
2023-03-27T11:17:44.312Z,98861.19
2023-03-27T11:20:50.296Z,98857.91
2023-03-27T11:23:44.550Z,98850.78
2023-03-27T11:26:19.586Z,98851.19
2023-03-27T11:28:52.972Z,98842.06
2023-03-27T11:31:40.542Z,98841.53
2023-03-27T11:34:15.362Z,98838.03
2023-03-27T11:36:59.603Z,98842.16
2023-03-27T11:39:55.234Z,98842.66
2023-03-27T11:42:31.388Z,98840.34
2023-03-27T11:44:59.610Z,98847.19
2023-03-27T11:47:50.753Z,98835.94
2023-03-27T11:50:47.496Z,98830.28
2023-03-27T11:53:21.391Z,98831.09
2023-03-27T11:56:34.294Z,98828.69
2023-03-27T11:59:48.447Z,98820.91
2023-03-27T12:02:40.899Z,98826.97
2023-03-27T12:05:33.844Z,98820.03
2023-03-27T12:08:22.620Z,98820.19
2023-03-27T12:10:54.551Z,98823.63
2023-03-27T12:14:08.894Z,98817.22
2023-03-27T12:17:28.129Z,98807.75
2023-03-27T12:20:21.490Z,98810.28
2023-03-27T12:23:09.785Z,98808.50
2023-03-27T12:25:56.516Z,98807.38
2023-03-27T12:29:23.176Z,98819.38
2023-03-27T12:32:15.597Z,98820.00
2023-03-27T12:35:03.414Z,98819.88
2023-03-27T12:37:50.856Z,98819.09
2023-03-27T12:40:38.959Z,98815.69
2023-03-27T12:43:29.559Z,98814.19
2023-03-27T12:46:19.112Z,98828.47
2023-03-27T12:49:13.287Z,98834.91
2023-03-27T12:52:04.816Z,98829.88
2023-03-27T12:55:30.964Z,98816.63
2023-03-27T12:57:58.364Z,98818.91
2023-03-27T13:01:01.840Z,98823.78
2023-03-27T13:03:59.237Z,98814.91
2023-03-27T13:06:38.629Z,98824.41
2023-03-27T13:09:33.368Z,98826.31
2023-03-27T13:12:29.570Z,98828.94
2023-03-27T13:15:40.915Z,98813.22
2023-03-27T13:18:36.031Z,98811.69
2023-03-27T13:21:19.040Z,98831.09
2023-03-27T13:24:00.592Z,98841.28
2023-03-27T13:26:47.674Z,98853.09
2023-03-27T13:29:26.334Z,98864.91
2023-03-27T13:31:59.976Z,98860.63
2023-03-27T13:34:41.332Z,98873.06
2023-03-27T13:37:15.937Z,98880.97
2023-03-27T13:39:58.718Z,98877.78
2023-03-27T13:42:34.314Z,98874.13
2023-03-27T13:45:46.509Z,98881.38
2023-03-27T13:49:00.672Z,98879.44
2023-03-27T13:51:55.140Z,98876.47
2023-03-27T13:54:51.214Z,98865.56
2023-03-27T13:57:48.550Z,98862.41
2023-03-27T14:00:24.108Z,98851.06
2023-03-27T14:03:32.373Z,98860.03
2023-03-27T14:06:40.651Z,98862.19
2023-03-27T14:09:35.779Z,98857.38
2023-03-27T14:12:22.631Z,98853.50
2023-03-27T14:15:18.625Z,98850.94
2023-03-27T14:18:21.957Z,98851.00
2023-03-27T14:21:02.121Z,98861.25
2023-03-27T14:23:49.303Z,98854.56
2023-03-27T14:26:30.442Z,98849.19
2023-03-27T14:29:00.768Z,98865.59
2023-03-27T14:31:44.455Z,98869.06
2023-03-27T14:34:43.480Z,98862.28
2023-03-27T14:37:36.239Z,98865.66
2023-03-27T14:40:23.164Z,98866.44
2023-03-27T14:42:52.603Z,98869.25
2023-03-27T14:45:23.552Z,98871.78
2023-03-27T14:47:59.894Z,98871.84
2023-03-27T14:50:31.835Z,98864.59
2023-03-27T14:52:59.203Z,98871.91
2023-03-27T14:55:34.738Z,98866.91
2023-03-27T14:58:22.470Z,98867.06
2023-03-27T15:00:59.895Z,98862.88
2023-03-27T15:03:33.834Z,98869.59
2023-03-27T15:06:13.405Z,98866.19
2023-03-27T15:08:50.329Z,98870.75
2023-03-27T15:11:38.904Z,98870.63
2023-03-27T15:14:25.766Z,98877.84
2023-03-27T15:16:58.961Z,98884.09
2023-03-27T15:19:32.610Z,98881.78
2023-03-27T15:22:05.027Z,98887.03
2023-03-27T15:24:31.506Z,98887.22
2023-03-27T15:27:00.962Z,98890.81
2023-03-27T15:30:05.641Z,98889.19
2023-03-27T15:32:42.859Z,98902.63
2023-03-27T15:35:18.115Z,98915.28
2023-03-27T15:37:45.280Z,98915.91
2023-03-27T15:40:14.273Z,98916.91
2023-03-27T15:42:52.516Z,98920.50
2023-03-27T15:45:34.218Z,98920.97
2023-03-27T15:48:16.025Z,98922.44
2023-03-27T15:51:03.556Z,98920.66
2023-03-27T15:53:38.057Z,98928.22
2023-03-27T15:56:06.523Z,98925.56
2023-03-27T15:59:11.830Z,98934.63
2023-03-27T16:01:42.063Z,98931.09
2023-03-27T16:04:15.514Z,98928.78
2023-03-27T16:06:46.120Z,98940.34
2023-03-27T16:09:28.322Z,98940.69
2023-03-27T16:11:57.503Z,98941.28
2023-03-27T16:14:40.763Z,98941.28
2023-03-27T16:17:16.878Z,98941.97
2023-03-27T16:20:16.958Z,98947.97
2023-03-27T16:22:43.447Z,98951.03
2023-03-27T16:25:11.921Z,98952.25
2023-03-27T16:27:40.042Z,98957.09
2023-03-27T16:30:09.236Z,98952.50
2023-03-27T16:32:36.849Z,98955.88
2023-03-27T16:35:03.450Z,98961.09
2023-03-27T16:37:29.884Z,98963.72
2023-03-27T16:39:56.767Z,98959.91
2023-03-27T16:42:26.201Z,98962.03
2023-03-27T16:44:53.606Z,98962.84
2023-03-27T16:47:22.955Z,98963.44
2023-03-27T16:50:03.550Z,98962.09
2023-03-27T16:52:36.290Z,98976.66
2023-03-27T16:55:04.615Z,98972.63
2023-03-27T16:57:33.015Z,98969.47
2023-03-27T16:59:59.458Z,98976.34
2023-03-27T17:02:26.595Z,98976.66
2023-03-27T17:04:53.240Z,98976.97
2023-03-27T17:07:19.752Z,98982.34
2023-03-27T17:09:46.391Z,98993.97
2023-03-27T17:12:12.834Z,98997.91
2023-03-27T17:14:39.364Z,98995.75
2023-03-27T17:17:05.861Z,99003.25
2023-03-27T17:19:32.456Z,99003.81
2023-03-27T17:21:58.883Z,99004.06
2023-03-27T17:24:25.530Z,99021.56
2023-03-27T17:26:51.981Z,99023.63
2023-03-27T17:29:18.888Z,99020.63
2023-03-27T17:31:46.003Z,99033.84
2023-03-27T17:34:13.119Z,99046.19
2023-03-27T17:36:45.268Z,99047.56
2023-03-27T17:39:18.984Z,99049.38
2023-03-27T17:41:45.480Z,99051.31
2023-03-27T17:44:13.168Z,99055.75
2023-03-27T17:46:39.712Z,99065.66
2023-03-27T17:49:06.175Z,99069.38
2023-03-27T17:51:34.090Z,99071.72
2023-03-27T17:54:00.775Z,99075.47
2023-03-27T17:56:27.343Z,99080.53
2023-03-27T17:58:54.014Z,99084.56
2023-03-27T18:01:22.243Z,99092.66
2023-03-27T18:03:49.686Z,99090.72
2023-03-27T18:06:17.604Z,99096.63
2023-03-27T18:08:45.721Z,99102.00
2023-03-27T18:11:14.147Z,99110.28
2023-03-27T18:13:41.449Z,99115.81
2023-03-27T18:16:10.643Z,99119.81
2023-03-27T18:18:38.925Z,99113.78
2023-03-27T18:21:07.375Z,99115.72
2023-03-27T18:23:35.045Z,99112.97
2023-03-27T18:26:08.177Z,99115.88
2023-03-27T18:28:35.706Z,99117.94
2023-03-27T18:31:04.932Z,99125.66
2023-03-27T18:33:31.926Z,99131.16
2023-03-27T18:35:58.974Z,99130.75
2023-03-27T18:38:27.612Z,99135.16
2023-03-27T18:40:56.824Z,99145.88
2023-03-27T18:43:24.006Z,99139.38
2023-03-27T18:46:02.457Z,99149.81
2023-03-27T18:48:30.892Z,99152.75
2023-03-27T18:50:59.823Z,99159.84
2023-03-27T18:53:26.707Z,99162.31
2023-03-27T18:55:54.063Z,99153.41
2023-03-27T18:58:24.104Z,99164.94
2023-03-27T19:00:51.496Z,99159.94
2023-03-27T19:03:23.446Z,99163.25
2023-03-27T19:05:51.585Z,99168.13
2023-03-27T19:08:20.165Z,99167.41
2023-03-27T19:10:46.719Z,99164.41
2023-03-27T19:13:18.100Z,99162.59
2023-03-27T19:16:14.244Z,99163.72
2023-03-27T19:19:11.117Z,99165.06
2023-03-27T19:21:52.949Z,99171.25
2023-03-27T19:24:44.883Z,99167.09
2023-03-27T19:27:23.558Z,99171.16
2023-03-27T19:29:51.838Z,99177.72
2023-03-27T19:32:18.334Z,99181.34
2023-03-27T19:34:44.795Z,99184.66
2023-03-27T19:37:11.254Z,99186.59
2023-03-27T19:39:37.884Z,99191.59
2023-03-27T19:42:04.698Z,99192.88
2023-03-27T19:44:34.373Z,99199.38
2023-03-27T19:47:03.575Z,99205.19
2023-03-27T19:49:30.415Z,99210.06
2023-03-27T19:52:20.094Z,99207.09
2023-03-27T19:54:47.015Z,99207.34
2023-03-27T19:57:13.968Z,99218.16
2023-03-27T19:59:40.598Z,99217.53
2023-03-27T20:02:07.345Z,99221.47
2023-03-27T20:04:33.844Z,99221.41
2023-03-27T20:07:01.949Z,99226.31
2023-03-27T20:09:28.691Z,99223.81
2023-03-27T20:11:55.231Z,99233.41
2023-03-27T20:14:21.718Z,99234.94
2023-03-27T20:16:48.315Z,99243.09
2023-03-27T20:19:16.646Z,99241.69
2023-03-27T20:21:43.778Z,99241.56
2023-03-27T20:24:14.262Z,99245.00
2023-03-27T20:26:48.027Z,99246.28
2023-03-27T20:29:20.155Z,99241.09
2023-03-27T20:31:47.921Z,99246.28
2023-03-27T20:34:14.975Z,99240.97
2023-03-27T20:36:43.270Z,99237.97
2023-03-27T20:39:31.181Z,99240.34
2023-03-27T20:41:59.226Z,99243.53
2023-03-27T20:44:36.090Z,99247.50
2023-03-27T20:47:12.049Z,99242.88
2023-03-27T20:49:45.631Z,99249.78
2023-03-27T20:52:15.353Z,99256.38
2023-03-27T20:54:42.220Z,99252.06
2023-03-27T20:57:11.132Z,99257.81
2023-03-27T20:59:37.853Z,99257.06
2023-03-27T21:02:05.034Z,99260.47
2023-03-27T21:04:31.784Z,99263.38
2023-03-27T21:06:58.780Z,99262.63
2023-03-27T21:09:26.460Z,99261.63
2023-03-27T21:11:55.014Z,99266.22
2023-03-27T21:14:21.836Z,99275.19
2023-03-27T21:16:48.343Z,99275.88
2023-03-27T21:19:14.823Z,99269.72
2023-03-27T21:21:41.482Z,99277.06
2023-03-27T21:24:07.989Z,99277.56
2023-03-27T21:26:35.360Z,99271.88
2023-03-27T21:29:02.998Z,99268.00
2023-03-27T21:31:29.598Z,99267.31
2023-03-27T21:33:56.159Z,99272.84
2023-03-27T21:36:22.907Z,99273.94
2023-03-27T21:38:49.415Z,99279.38
2023-03-27T21:41:17.237Z,99278.78
2023-03-27T21:43:44.266Z,99285.19
2023-03-27T21:46:11.095Z,99288.72
2023-03-27T21:48:37.716Z,99298.28
2023-03-27T21:51:06.306Z,99298.41
2023-03-27T21:53:33.070Z,99297.03
2023-03-27T21:55:59.887Z,99300.47
2023-03-27T21:58:27.283Z,99302.84
2023-03-27T22:00:57.261Z,99302.44
2023-03-27T22:03:24.836Z,99308.25
2023-03-27T22:06:01.051Z,99306.16
2023-03-27T22:08:36.679Z,99310.22
2023-03-27T22:11:03.470Z,99322.13
2023-03-27T22:13:29.929Z,99320.25
2023-03-27T22:15:56.852Z,99324.84
2023-03-27T22:18:23.967Z,99325.13
2023-03-27T22:20:50.856Z,99325.34
2023-03-27T22:23:17.306Z,99332.09
2023-03-27T22:25:51.334Z,99336.38
2023-03-27T22:28:18.001Z,99342.91
2023-03-27T22:30:44.448Z,99342.78
2023-03-27T22:33:10.961Z,99344.34
2023-03-27T22:35:37.495Z,99342.19
2023-03-27T22:38:03.935Z,99349.41
2023-03-27T22:40:30.408Z,99344.84
2023-03-27T22:42:56.918Z,99354.69
2023-03-27T22:45:23.342Z,99357.44
2023-03-27T22:47:49.827Z,99356.88
2023-03-27T22:50:16.356Z,99366.56
2023-03-27T22:52:42.799Z,99369.81
2023-03-27T22:55:09.496Z,99368.78
2023-03-27T22:57:36.781Z,99368.31
2023-03-27T23:00:05.814Z,99363.53
2023-03-27T23:02:32.406Z,99367.69
2023-03-27T23:04:58.897Z,99368.41
2023-03-27T23:07:25.337Z,99370.47
2023-03-27T23:09:51.831Z,99370.16
2023-03-27T23:12:18.291Z,99375.16
2023-03-27T23:14:44.712Z,99380.53
2023-03-27T23:17:11.194Z,99379.34
2023-03-27T23:19:37.703Z,99382.97
2023-03-27T23:22:04.247Z,99383.91
2023-03-27T23:24:30.985Z,99385.28
2023-03-27T23:26:57.450Z,99393.38
2023-03-27T23:29:23.892Z,99390.81
2023-03-27T23:31:50.645Z,99396.88
2023-03-27T23:34:17.148Z,99397.84
2023-03-27T23:36:43.577Z,99390.09
2023-03-27T23:39:10.130Z,99401.00
2023-03-27T23:41:36.671Z,99400.28
2023-03-27T23:44:03.443Z,99400.56
2023-03-27T23:46:30.085Z,99399.81
2023-03-27T23:48:56.605Z,99403.63
2023-03-27T23:51:23.676Z,99401.25
2023-03-27T23:53:50.502Z,99403.16
2023-03-27T23:56:16.940Z,99410.91
2023-03-27T23:58:43.402Z,99415.16
